Time;durP1;ratioP1;P1;durP2;ratioP2;P2;SDS_P1;SDS_P2;PMS_P1;PMS_P2;Temp;Humidity;BMP_temperature;BMP_pressure;BME280_temperature;BME280_humidity;BME280_pressure;Samples;Min_cycle;Max_cycle;Signal;HPM_P1;HPM_P2
2024/04/24 00:01:46;;;;;;;18.57;14.80;;;;;;;;;;5306968;26;20252;-59
2024/04/24 00:04:15;;;;;;;18.03;13.17;;;;;;;;;;5339801;26;20294;-59
2024/04/24 00:06:44;;;;;;;15.10;13.37;;;;;;;;;;5338372;26;20242;-59
2024/04/24 00:09:16;;;;;;;18.90;14.13;;;;;;;;;;5331389;26;20239;-59
2024/04/24 00:11:45;;;;;;;16.90;13.60;;;;;;;;;;5343161;26;20274;-58
2024/04/24 00:14:14;;;;;;;18.90;15.67;;;;;;;;;;5320945;26;20300;-58
2024/04/24 00:16:43;;;;;;;17.87;14.30;;;;;;;;;;5322727;26;20242;-59
2024/04/24 00:19:11;;;;;;;17.77;14.63;;;;;;;;;;5310887;26;20239;-59
2024/04/24 00:21:40;;;;;;;15.80;13.80;;;;;;;;;;5297878;26;20240;-58
2024/04/24 00:24:14;;;;;;;18.47;14.23;;;;;;;;;;5301479;26;20275;-58
2024/04/24 00:26:45;;;;;;;15.93;13.97;;;;;;;;;;5321807;26;20244;-59
2024/04/24 00:29:14;;;;;;;16.33;14.23;;;;;;;;;;5341293;26;20278;-58
2024/04/24 00:31:43;;;;;;;19.33;16.07;;;;;;;;;;5329197;26;20240;-59
2024/04/24 00:34:12;;;;;;;19.67;15.77;;;;;;;;;;5338679;26;20396;-59
2024/04/24 00:36:41;;;;;;;16.57;14.20;;;;;;;;;;5341368;26;20768;-59
2024/04/24 00:39:10;;;;;;;16.10;13.90;;;;;;;;;;5341309;26;20744;-59
2024/04/24 00:41:38;;;;;;;19.10;16.23;;;;;;;;;;5320393;26;20239;-58
2024/04/24 00:44:10;;;;;;;16.27;13.90;;;;;;;;;;5319775;26;20266;-59
2024/04/24 00:46:39;;;;;;;18.97;15.00;;;;;;;;;;5324845;26;20241;-59
2024/04/24 00:49:09;;;;;;;19.53;16.33;;;;;;;;;;5300597;27;20263;-58
2024/04/24 00:51:39;;;;;;;18.80;14.63;;;;;;;;;;5301056;26;20224;-59
2024/04/24 00:54:08;;;;;;;19.63;15.03;;;;;;;;;;5337694;26;20786;-59
2024/04/24 00:56:38;;;;;;;19.73;16.30;;;;;;;;;;5348642;26;20613;-59
2024/04/24 00:59:07;;;;;;;20.37;16.03;;;;;;;;;;5337037;26;20229;-58
2024/04/24 01:01:38;;;;;;;21.27;17.00;;;;;;;;;;5335908;26;20575;-59
2024/04/24 01:04:07;;;;;;;20.10;16.00;;;;;;;;;;5332394;26;20720;-59
2024/04/24 01:06:36;;;;;;;19.60;16.37;;;;;;;;;;5364566;26;20234;-59
2024/04/24 01:09:06;;;;;;;21.80;16.23;;;;;;;;;;5369391;26;20226;-59
2024/04/24 01:11:35;;;;;;;19.30;16.63;;;;;;;;;;5318899;26;20240;-59
2024/04/24 01:14:04;;;;;;;21.60;17.33;;;;;;;;;;5324790;26;20243;-59
2024/04/24 01:16:36;;;;;;;21.33;17.03;;;;;;;;;;5347863;26;20230;-59
2024/04/24 01:19:10;;;;;;;22.10;16.47;;;;;;;;;;5345623;26;20383;-58
2024/04/24 01:21:42;;;;;;;20.43;17.00;;;;;;;;;;5340238;26;20233;-59
2024/04/24 01:24:14;;;;;;;20.63;16.33;;;;;;;;;;5333749;26;20236;-59
2024/04/24 01:26:48;;;;;;;21.13;16.40;;;;;;;;;;5335272;26;20248;-59
2024/04/24 01:29:17;;;;;;;23.20;17.70;;;;;;;;;;5332503;26;20238;-59
2024/04/24 01:31:46;;;;;;;20.90;17.43;;;;;;;;;;5351962;26;20235;-59
2024/04/24 01:34:15;;;;;;;20.87;17.30;;;;;;;;;;5369583;26;20615;-59
2024/04/24 01:36:43;;;;;;;19.87;15.00;;;;;;;;;;5358514;26;20235;-59
2024/04/24 01:39:12;;;;;;;22.53;17.63;;;;;;;;;;5351832;26;20227;-59
2024/04/24 01:41:41;;;;;;;23.70;17.63;;;;;;;;;;5361973;26;20287;-59
2024/04/24 01:44:13;;;;;;;25.73;16.80;;;;;;;;;;5353731;26;20773;-59
2024/04/24 01:46:42;;;;;;;20.30;16.77;;;;;;;;;;5369494;26;20227;-59
2024/04/24 01:49:10;;;;;;;21.13;16.97;;;;;;;;;;5369000;26;20222;-58
2024/04/24 01:51:37;;;;;;;19.00;16.10;;;;;;;;;;5369429;26;20715;-59
2024/04/24 01:54:06;;;;;;;21.47;16.87;;;;;;;;;;5343656;26;20284;-58
2024/04/24 01:56:35;;;;;;;21.70;16.73;;;;;;;;;;5352004;26;20794;-59
2024/04/24 01:59:03;;;;;;;19.13;16.30;;;;;;;;;;5303108;27;20230;-59
2024/04/24 02:01:35;;;;;;;21.73;16.87;;;;;;;;;;5303595;27;20258;-59
2024/04/24 02:04:04;;;;;;;21.23;16.80;;;;;;;;;;5303433;27;20226;-59
2024/04/24 02:06:33;;;;;;;20.57;16.80;;;;;;;;;;5303474;26;20228;-59
2024/04/24 02:08:59;;;;;;;21.07;16.03;;;;;;;;;;5340583;26;20274;-59
2024/04/24 02:11:28;;;;;;;21.23;16.00;;;;;;;;;;5364960;26;20234;-58
2024/04/24 02:13:57;;;;;;;18.20;16.37;;;;;;;;;;5372828;26;20554;-59
2024/04/24 02:16:26;;;;;;;23.10;16.77;;;;;;;;;;5345970;26;20790;-58
2024/04/24 02:18:59;;;;;;;19.20;15.33;;;;;;;;;;5338421;26;20237;-59
2024/04/24 02:21:28;;;;;;;22.67;16.57;;;;;;;;;;5339035;26;20240;-59
2024/04/24 02:23:58;;;;;;;17.50;14.83;;;;;;;;;;5302581;27;20225;-59
2024/04/24 02:26:24;;;;;;;20.53;16.53;;;;;;;;;;5303394;27;20221;-59
2024/04/24 02:28:53;;;;;;;21.57;15.60;;;;;;;;;;5303415;27;20231;-59
2024/04/24 02:31:22;;;;;;;20.10;16.00;;;;;;;;;;5310517;26;20278;-59
2024/04/24 02:33:51;;;;;;;20.13;16.50;;;;;;;;;;5357059;26;20236;-59
2024/04/24 02:36:22;;;;;;;22.00;15.57;;;;;;;;;;5336631;26;20241;-59
2024/04/24 02:38:51;;;;;;;20.10;16.40;;;;;;;;;;5303376;27;20597;-59
2024/04/24 02:41:20;;;;;;;16.67;14.87;;;;;;;;;;5302853;27;20273;-59
2024/04/24 02:43:49;;;;;;;23.27;17.40;;;;;;;;;;5313866;26;20230;-59
2024/04/24 02:46:18;;;;;;;19.23;15.57;;;;;;;;;;5357877;26;20227;-59
2024/04/24 02:48:44;;;;;;;23.73;16.57;;;;;;;;;;5372656;26;20220;-59
2024/04/24 02:51:13;;;;;;;21.30;15.40;;;;;;;;;;5317384;26;20740;-59
2024/04/24 02:53:45;;;;;;;19.10;14.73;;;;;;;;;;5303087;27;20238;-59
2024/04/24 02:56:14;;;;;;;22.97;16.87;;;;;;;;;;5337659;26;20275;-58
2024/04/24 02:58:43;;;;;;;24.10;17.57;;;;;;;;;;5348658;26;20237;-59
2024/04/24 03:01:15;;;;;;;23.77;17.80;;;;;;;;;;5371402;26;20714;-59
2024/04/24 03:03:44;;;;;;;21.20;17.20;;;;;;;;;;5360317;26;20613;-58
2024/04/24 03:06:13;;;;;;;23.67;16.50;;;;;;;;;;5339236;26;20289;-60
2024/04/24 03:08:44;;;;;;;20.33;15.90;;;;;;;;;;5359636;26;20264;-60
2024/04/24 03:11:13;;;;;;;21.97;16.63;;;;;;;;;;5343755;26;20276;-60
2024/04/24 03:13:42;;;;;;;20.57;15.83;;;;;;;;;;5357468;26;20275;-60
2024/04/24 03:16:11;;;;;;;21.90;17.37;;;;;;;;;;5371430;26;20235;-60
2024/04/24 03:18:40;;;;;;;24.50;18.20;;;;;;;;;;5343544;26;20582;-60
2024/04/24 03:21:27;;;;;;;21.07;15.87;;;;;;;;;;5304944;26;20234;-60
2024/04/24 03:23:57;;;;;;;20.40;15.77;;;;;;;;;;5354742;26;20241;-60
2024/04/24 03:26:25;;;;;;;24.80;18.17;;;;;;;;;;5371596;26;20222;-60
2024/04/24 03:28:54;;;;;;;22.13;16.20;;;;;;;;;;5371789;26;20262;-60
2024/04/24 03:31:23;;;;;;;22.27;17.67;;;;;;;;;;5370888;26;20218;-60
2024/04/24 03:33:52;;;;;;;21.83;16.63;;;;;;;;;;5320401;26;20281;-60
2024/04/24 03:36:21;;;;;;;19.67;16.23;;;;;;;;;;5347645;26;20289;-60
2024/04/24 03:38:50;;;;;;;19.40;16.47;;;;;;;;;;5357102;26;20273;-60
2024/04/24 03:41:21;;;;;;;23.90;17.43;;;;;;;;;;5370905;26;20749;-60
2024/04/24 03:43:50;;;;;;;24.00;17.13;;;;;;;;;;5370227;26;20222;-60
2024/04/24 03:46:19;;;;;;;19.80;16.00;;;;;;;;;;5365127;26;20219;-58
2024/04/24 03:48:48;;;;;;;21.70;16.70;;;;;;;;;;5332426;26;20234;-58
2024/04/24 03:51:17;;;;;;;23.30;17.83;;;;;;;;;;5360138;26;20229;-58
2024/04/24 03:53:46;;;;;;;22.67;17.20;;;;;;;;;;5368353;26;20754;-59
2024/04/24 03:56:15;;;;;;;21.23;16.50;;;;;;;;;;5356599;26;20288;-58
2024/04/24 03:58:47;;;;;;;23.00;17.10;;;;;;;;;;5364766;26;20256;-58
2024/04/24 04:01:17;;;;;;;21.57;17.60;;;;;;;;;;5332586;26;20287;-58
2024/04/24 04:03:46;;;;;;;22.43;18.30;;;;;;;;;;5334586;26;20576;-58
2024/04/24 04:06:15;;;;;;;27.63;19.47;;;;;;;;;;5356386;26;20239;-59
2024/04/24 04:08:43;;;;;;;22.97;16.57;;;;;;;;;;5371062;26;20707;-58
2024/04/24 04:11:12;;;;;;;25.83;18.90;;;;;;;;;;5331702;26;20235;-59
2024/04/24 04:13:41;;;;;;;25.23;17.63;;;;;;;;;;5311945;26;20273;-59
2024/04/24 04:16:13;;;;;;;26.27;19.37;;;;;;;;;;5316670;26;20248;-59
2024/04/24 04:18:42;;;;;;;25.83;18.93;;;;;;;;;;5316113;26;20235;-59
2024/04/24 04:21:10;;;;;;;25.33;17.47;;;;;;;;;;5323081;26;20235;-59
2024/04/24 04:23:39;;;;;;;22.50;16.67;;;;;;;;;;5328926;26;20274;-59
2024/04/24 04:26:08;;;;;;;23.70;17.93;;;;;;;;;;5312407;26;20288;-58
2024/04/24 04:28:37;;;;;;;23.23;18.43;;;;;;;;;;5322279;26;20281;-60
2024/04/24 04:31:06;;;;;;;23.03;17.43;;;;;;;;;;5328118;26;20234;-61
2024/04/24 04:33:38;;;;;;;25.73;19.53;;;;;;;;;;5327736;26;20285;-61
2024/04/24 04:36:07;;;;;;;23.83;18.27;;;;;;;;;;5309721;26;20240;-61
2024/04/24 04:38:36;;;;;;;21.67;17.07;;;;;;;;;;5335207;26;20268;-57
2024/04/24 04:41:05;;;;;;;23.83;18.43;;;;;;;;;;5318485;26;20233;-60
2024/04/24 04:43:34;;;;;;;23.93;17.53;;;;;;;;;;5322552;26;20232;-60
2024/04/24 04:46:03;;;;;;;23.93;18.03;;;;;;;;;;5301197;26;20233;-60
2024/04/24 04:48:32;;;;;;;23.77;17.23;;;;;;;;;;5335122;26;20608;-60
2024/04/24 04:51:06;;;;;;;26.90;18.63;;;;;;;;;;5334643;26;20228;-58
2024/04/24 04:53:34;;;;;;;24.33;17.60;;;;;;;;;;5332855;26;20343;-59
2024/04/24 04:56:03;;;;;;;22.00;16.73;;;;;;;;;;5318444;26;20288;-58
2024/04/24 04:58:32;;;;;;;23.47;18.53;;;;;;;;;;5331675;26;20286;-58
2024/04/24 05:01:01;;;;;;;24.03;19.20;;;;;;;;;;5334716;26;20274;-58
2024/04/24 05:03:30;;;;;;;23.97;19.13;;;;;;;;;;5336650;26;20584;-60
2024/04/24 05:05:59;;;;;;;24.50;17.60;;;;;;;;;;5306699;26;20240;-60
2024/04/24 05:08:31;;;;;;;23.27;18.70;;;;;;;;;;5335203;26;20252;-60
2024/04/24 05:11:00;;;;;;;24.57;18.03;;;;;;;;;;5332835;26;20233;-60
2024/04/24 05:13:28;;;;;;;24.83;18.90;;;;;;;;;;5334920;26;20232;-60
2024/04/24 05:15:57;;;;;;;26.10;18.67;;;;;;;;;;5323339;26;20273;-60
2024/04/24 05:18:26;;;;;;;24.50;17.40;;;;;;;;;;5316374;26;20283;-60
2024/04/24 05:20:55;;;;;;;24.70;18.60;;;;;;;;;;5331037;26;20232;-60
2024/04/24 05:23:24;;;;;;;23.60;17.40;;;;;;;;;;5334723;26;20244;-60
2024/04/24 05:25:57;;;;;;;23.80;17.33;;;;;;;;;;5305521;26;20293;-61
2024/04/24 05:31:30;;;;;;;20.00;15.63;;;;;;;;;;5328534;26;20270;-60
2024/04/24 05:33:59;;;;;;;27.67;17.90;;;;;;;;;;5328803;26;20286;-60
2024/04/24 05:36:27;;;;;;;22.57;17.43;;;;;;;;;;5326200;26;20233;-61
2024/04/24 05:38:56;;;;;;;22.77;17.03;;;;;;;;;;5334539;26;20284;-60
2024/04/24 05:41:28;;;;;;;25.50;18.73;;;;;;;;;;5334061;26;20587;-60
2024/04/24 05:43:57;;;;;;;22.13;16.77;;;;;;;;;;5330469;26;20232;-60
2024/04/24 05:46:25;;;;;;;20.30;17.67;;;;;;;;;;5325425;26;20237;-61
2024/04/24 05:48:54;;;;;;;21.43;17.60;;;;;;;;;;5332826;26;20239;-60
2024/04/24 05:51:23;;;;;;;24.03;18.47;;;;;;;;;;5333991;26;20580;-61
2024/04/24 05:53:52;;;;;;;19.83;17.07;;;;;;;;;;5333198;26;20563;-60
2024/04/24 05:56:21;;;;;;;23.57;16.40;;;;;;;;;;5333921;26;20241;-60
2024/04/24 05:58:52;;;;;;;22.13;18.13;;;;;;;;;;5334129;26;20240;-60
2024/04/24 06:01:21;;;;;;;23.37;18.37;;;;;;;;;;5327382;26;20792;-60
2024/04/24 06:03:50;;;;;;;25.77;18.80;;;;;;;;;;5318985;26;20568;-60
2024/04/24 06:06:19;;;;;;;23.07;19.07;;;;;;;;;;5339365;26;20236;-60
2024/04/24 06:08:48;;;;;;;28.93;19.73;;;;;;;;;;5330252;26;20240;-60
2024/04/24 06:11:17;;;;;;;27.80;20.43;;;;;;;;;;5330895;26;20823;-60
2024/04/24 06:13:45;;;;;;;25.97;19.20;;;;;;;;;;5334400;26;20230;-60
2024/04/24 06:16:17;;;;;;;31.30;21.70;;;;;;;;;;5327519;26;20274;-60
2024/04/24 06:18:46;;;;;;;28.17;20.03;;;;;;;;;;5319583;26;20269;-61
2024/04/24 06:21:15;;;;;;;25.70;20.23;;;;;;;;;;5333519;26;20240;-60
2024/04/24 06:23:44;;;;;;;23.87;19.33;;;;;;;;;;5333498;26;20277;-60
2024/04/24 06:26:12;;;;;;;25.10;19.07;;;;;;;;;;5333841;26;20235;-60
2024/04/24 06:28:41;;;;;;;25.73;19.23;;;;;;;;;;5313990;26;20419;-60
2024/04/24 06:31:10;;;;;;;28.60;19.97;;;;;;;;;;5329947;26;20236;-60
2024/04/24 06:33:42;;;;;;;25.43;19.03;;;;;;;;;;5299724;26;20367;-60
2024/04/24 06:36:11;;;;;;;24.37;19.03;;;;;;;;;;5307325;26;20739;-60
2024/04/24 06:38:40;;;;;;;25.03;19.47;;;;;;;;;;5319529;26;20238;-61
2024/04/24 06:41:09;;;;;;;24.60;19.27;;;;;;;;;;5320827;26;20788;-60
2024/04/24 06:43:38;;;;;;;26.00;19.80;;;;;;;;;;5324165;26;20370;-64
2024/04/24 06:46:07;;;;;;;23.30;18.57;;;;;;;;;;5315025;26;20276;-63
2024/04/24 06:48:35;;;;;;;25.23;19.17;;;;;;;;;;5317026;26;20236;-61
2024/04/24 06:51:07;;;;;;;26.70;18.37;;;;;;;;;;5320777;26;20284;-74
2024/04/24 06:53:36;;;;;;;22.83;18.47;;;;;;;;;;5333056;26;20238;-63
2024/04/24 06:56:06;;;;;;;25.23;19.80;;;;;;;;;;5316099;26;20245;-63
2024/04/24 06:58:36;;;;;;;24.00;19.13;;;;;;;;;;5316892;26;20278;-63
2024/04/24 07:01:05;;;;;;;21.47;18.43;;;;;;;;;;5310534;26;20248;-62
2024/04/24 07:03:35;;;;;;;21.03;18.10;;;;;;;;;;5313957;26;20248;-63
2024/04/24 07:06:04;;;;;;;25.30;19.37;;;;;;;;;;5319566;26;20813;-67
2024/04/24 07:08:36;;;;;;;21.77;17.60;;;;;;;;;;5333017;26;20237;-62
2024/04/24 07:11:05;;;;;;;19.93;16.90;;;;;;;;;;5326758;26;20281;-61
2024/04/24 07:13:34;;;;;;;21.93;18.90;;;;;;;;;;5316023;26;20282;-61
2024/04/24 07:16:03;;;;;;;22.67;17.73;;;;;;;;;;5333360;26;20344;-61
2024/04/24 07:18:32;;;;;;;20.90;16.20;;;;;;;;;;5317215;26;20248;-61
2024/04/24 07:21:01;;;;;;;22.37;16.43;;;;;;;;;;5314730;26;20290;-61
2024/04/24 07:23:30;;;;;;;19.52;17.42;;;;;;;;;;5340785;26;20362;-61
2024/04/24 07:26:02;;;;;;;22.30;17.73;;;;;;;;;;5325052;26;20348;-61
2024/04/24 07:28:31;;;;;;;21.07;17.20;;;;;;;;;;5309873;26;20284;-60
2024/04/24 07:31:00;;;;;;;18.63;16.37;;;;;;;;;;5317467;26;20235;-61
2024/04/24 07:33:29;;;;;;;16.87;14.97;;;;;;;;;;5336526;26;20239;-64
2024/04/24 07:35:58;;;;;;;19.10;15.77;;;;;;;;;;5319076;26;20292;-60
2024/04/24 07:38:27;;;;;;;21.17;16.07;;;;;;;;;;5321220;26;20236;-61
2024/04/24 07:40:56;;;;;;;18.77;15.10;;;;;;;;;;5316849;26;20237;-63
2024/04/24 07:43:27;;;;;;;16.17;14.47;;;;;;;;;;5321973;26;20241;-65
2024/04/24 07:45:56;;;;;;;17.23;14.63;;;;;;;;;;5327488;26;20294;-70
2024/04/24 07:48:25;;;;;;;15.40;13.70;;;;;;;;;;5329848;26;20282;-66
2024/04/24 07:50:54;;;;;;;17.70;15.30;;;;;;;;;;5317023;26;20789;-66
2024/04/24 07:53:23;;;;;;;19.80;14.83;;;;;;;;;;5322835;26;20273;-67
2024/04/24 07:55:52;;;;;;;18.20;15.03;;;;;;;;;;5327656;26;20292;-65
2024/04/24 07:58:21;;;;;;;16.63;14.47;;;;;;;;;;5318866;26;20236;-65
2024/04/24 08:00:53;;;;;;;17.97;15.37;;;;;;;;;;5318531;26;20235;-63
2024/04/24 08:03:22;;;;;;;16.33;13.73;;;;;;;;;;5330926;26;20586;-63
2024/04/24 08:05:50;;;;;;;18.17;16.17;;;;;;;;;;5314422;26;20245;-63
2024/04/24 08:08:19;;;;;;;14.67;13.13;;;;;;;;;;5333072;26;20232;-62
2024/04/24 08:10:48;;;;;;;16.33;14.63;;;;;;;;;;5330958;26;20655;-62
2024/04/24 08:13:19;;;;;;;16.80;14.67;;;;;;;;;;5318535;26;20244;-62
2024/04/24 08:15:48;;;;;;;13.87;12.47;;;;;;;;;;5319734;26;20238;-63
2024/04/24 08:18:19;;;;;;;18.50;14.63;;;;;;;;;;5332236;26;20236;-63
2024/04/24 08:20:48;;;;;;;15.90;13.23;;;;;;;;;;5325425;26;20280;-63
2024/04/24 08:23:17;;;;;;;14.20;12.70;;;;;;;;;;5320783;26;20230;-63
2024/04/24 08:25:46;;;;;;;17.87;12.97;;;;;;;;;;5329395;26;20240;-64
2024/04/24 08:28:15;;;;;;;15.80;13.30;;;;;;;;;;5335699;26;20298;-60
2024/04/24 08:30:44;;;;;;;17.00;12.23;;;;;;;;;;5334814;26;20235;-61
2024/04/24 08:33:12;;;;;;;11.77;10.57;;;;;;;;;;5331208;26;20759;-61
2024/04/24 08:35:44;;;;;;;12.53;10.37;;;;;;;;;;5312756;26;20278;-61
2024/04/24 08:38:32;;;;;;;12.20;10.70;;;;;;;;;;5332411;26;20271;-61
2024/04/24 08:41:05;;;;;;;10.03;9.13;;;;;;;;;;5331555;26;20231;-61
2024/04/24 08:43:34;;;;;;;8.63;7.83;;;;;;;;;;5333251;26;20236;-62
2024/04/24 08:46:03;;;;;;;9.50;8.50;;;;;;;;;;5333481;26;20294;-61
2024/04/24 08:48:33;;;;;;;8.20;7.50;;;;;;;;;;5329880;26;20232;-61
2024/04/24 08:51:05;;;;;;;9.43;8.47;;;;;;;;;;5333520;26;20232;-61
2024/04/24 08:53:34;;;;;;;11.10;10.00;;;;;;;;;;5335536;26;20882;-62
2024/04/24 08:56:04;;;;;;;11.37;10.03;;;;;;;;;;5335069;26;20243;-61
2024/04/24 08:58:34;;;;;;;11.53;9.90;;;;;;;;;;5335263;26;20236;-60
2024/04/24 09:01:06;;;;;;;10.60;9.60;;;;;;;;;;5360895;21;20279;-60
2024/04/24 09:03:36;;;;;;;10.60;9.60;;;;;;;;;;5332801;26;20378;-60
2024/04/24 09:06:10;;;;;;;10.23;9.20;;;;;;;;;;5334805;26;20278;-58
2024/04/24 09:08:38;;;;;;;8.70;8.00;;;;;;;;;;5328722;26;20241;-58
2024/04/24 09:11:07;;;;;;;9.10;8.17;;;;;;;;;;5329965;26;20229;-58
2024/04/24 09:13:37;;;;;;;10.93;9.63;;;;;;;;;;5369479;26;20282;-58
2024/04/24 09:16:07;;;;;;;12.63;10.67;;;;;;;;;;5368788;26;20236;-58
2024/04/24 09:18:36;;;;;;;9.13;8.33;;;;;;;;;;5342247;26;20741;-58
2024/04/24 09:21:08;;;;;;;9.57;8.60;;;;;;;;;;5334037;26;20267;-58
2024/04/24 09:23:37;;;;;;;9.60;8.70;;;;;;;;;;5351996;26;20237;-58
2024/04/24 09:26:06;;;;;;;8.33;7.63;;;;;;;;;;5367556;26;20281;-58
2024/04/24 09:28:35;;;;;;;8.30;7.50;;;;;;;;;;5344748;26;20276;-58
2024/04/24 09:31:06;;;;;;;9.33;8.13;;;;;;;;;;5338332;26;20277;-58
2024/04/24 09:33:35;;;;;;;8.03;7.27;;;;;;;;;;5342484;26;20279;-58
2024/04/24 09:36:03;;;;;;;8.30;7.53;;;;;;;;;;5334101;26;20288;-58
2024/04/24 09:38:35;;;;;;;7.03;6.47;;;;;;;;;;5334354;26;20240;-58
2024/04/24 09:41:05;;;;;;;6.23;5.73;;;;;;;;;;5342987;26;20743;-58
2024/04/24 09:43:34;;;;;;;6.03;5.60;;;;;;;;;;5361664;26;20266;-58
2024/04/24 09:46:03;;;;;;;5.57;5.07;;;;;;;;;;5368837;26;20881;-58
2024/04/24 09:48:32;;;;;;;5.73;4.30;;;;;;;;;;5368973;26;20237;-58
2024/04/24 09:51:01;;;;;;;6.63;5.23;;;;;;;;;;5368180;26;20278;-58
2024/04/24 09:53:30;;;;;;;5.03;4.57;;;;;;;;;;5368948;26;20231;-58
2024/04/24 09:56:07;;;;;;;4.40;4.10;;;;;;;;;;5368836;26;20232;-58
2024/04/24 09:58:37;;;;;;;4.00;3.70;;;;;;;;;;5366874;26;20238;-58
2024/04/24 10:01:06;;;;;;;4.20;3.67;;;;;;;;;;5332732;26;20236;-58
2024/04/24 10:03:36;;;;;;;3.73;3.37;;;;;;;;;;5334890;26;20752;-58
2024/04/24 10:06:11;;;;;;;3.85;3.60;;;;;;;;;;5349327;26;20881;-58
2024/04/24 10:08:41;;;;;;;4.60;4.20;;;;;;;;;;5360226;26;20230;-57
2024/04/24 10:11:14;;;;;;;4.37;4.13;;;;;;;;;;5360853;26;20354;-57
2024/04/24 10:13:44;;;;;;;4.10;3.90;;;;;;;;;;5368651;26;20277;-58
2024/04/24 10:16:13;;;;;;;4.97;3.93;;;;;;;;;;5368435;26;20995;-58
2024/04/24 10:18:43;;;;;;;4.77;4.43;;;;;;;;;;5371851;26;20285;-59
2024/04/24 10:21:13;;;;;;;4.30;4.00;;;;;;;;;;5371301;26;20225;-60
2024/04/24 10:23:42;;;;;;;3.97;3.77;;;;;;;;;;5363547;26;20560;-60
2024/04/24 10:26:14;;;;;;;4.73;4.37;;;;;;;;;;5357701;26;20528;-58
2024/04/24 10:28:43;;;;;;;4.40;4.00;;;;;;;;;;5371351;26;20229;-60
2024/04/24 10:31:14;;;;;;;3.80;3.63;;;;;;;;;;5371104;26;20232;-57
2024/04/24 10:33:43;;;;;;;4.53;4.23;;;;;;;;;;5370803;26;20578;-60
2024/04/24 10:36:12;;;;;;;5.07;4.67;;;;;;;;;;5337036;26;20256;-60
2024/04/24 10:38:45;;;;;;;4.57;4.20;;;;;;;;;;5358944;26;20233;-58
2024/04/24 10:41:16;;;;;;;4.60;4.40;;;;;;;;;;5370667;26;20227;-57
2024/04/24 10:43:46;;;;;;;4.90;4.60;;;;;;;;;;5371579;26;20273;-57
2024/04/24 10:46:20;;;;;;;4.30;4.00;;;;;;;;;;5371568;26;20225;-58
2024/04/24 10:48:58;;;;;;;5.67;5.27;;;;;;;;;;5371255;26;20733;-58
2024/04/24 10:51:34;;;;;;;4.43;4.03;;;;;;;;;;5369055;26;20735;-58
2024/04/24 10:54:03;;;;;;;4.67;4.37;;;;;;;;;;5370761;26;20235;-61
2024/04/24 10:56:35;;;;;;;4.60;4.30;;;;;;;;;;5345376;26;20281;-60
2024/04/24 10:59:04;;;;;;;6.77;4.50;;;;;;;;;;5336378;26;20272;-59
2024/04/24 11:01:33;;;;;;;3.90;3.60;;;;;;;;;;5336224;26;20792;-61
2024/04/24 11:04:03;;;;;;;4.67;4.43;;;;;;;;;;5341202;26;20228;-59
2024/04/24 11:06:33;;;;;;;4.53;4.13;;;;;;;;;;5362401;26;20231;-58
2024/04/24 11:09:02;;;;;;;3.93;3.73;;;;;;;;;;5356784;26;20356;-59
2024/04/24 11:11:31;;;;;;;4.53;4.23;;;;;;;;;;5371145;26;20720;-56
2024/04/24 11:14:06;;;;;;;3.83;3.63;;;;;;;;;;5352989;26;20288;-59
2024/04/24 11:16:35;;;;;;;3.60;3.40;;;;;;;;;;5336389;26;20649;-58
2024/04/24 11:19:04;;;;;;;4.13;3.87;;;;;;;;;;5336266;26;20580;-59
2024/04/24 11:21:33;;;;;;;3.97;3.77;;;;;;;;;;5336305;26;20232;-58
2024/04/24 11:24:02;;;;;;;4.00;3.70;;;;;;;;;;5342415;26;20235;-58
2024/04/24 11:26:32;;;;;;;4.20;3.90;;;;;;;;;;5371064;26;20233;-59
2024/04/24 11:29:03;;;;;;;3.83;3.10;;;;;;;;;;5369623;26;20236;-59
2024/04/24 11:31:35;;;;;;;3.00;2.80;;;;;;;;;;5368993;26;20240;-58
2024/04/24 11:34:04;;;;;;;4.70;3.30;;;;;;;;;;5337715;26;20282;-58
2024/04/24 11:36:34;;;;;;;3.77;3.57;;;;;;;;;;5336209;26;20646;-57
2024/04/24 11:39:03;;;;;;;4.47;3.57;;;;;;;;;;5335848;26;20279;-58
2024/04/24 11:41:35;;;;;;;3.90;3.60;;;;;;;;;;5347828;26;20282;-57
2024/04/24 11:44:04;;;;;;;3.50;3.30;;;;;;;;;;5370682;26;20323;-58
2024/04/24 11:46:36;;;;;;;3.40;3.20;;;;;;;;;;5370809;26;20282;-57
2024/04/24 11:49:06;;;;;;;4.23;4.03;;;;;;;;;;5370537;26;20239;-58
2024/04/24 11:51:32;;;;;;;3.70;3.40;;;;;;;;;;5370732;26;20239;-57
2024/04/24 11:54:01;;;;;;;3.93;3.57;;;;;;;;;;5370370;26;20746;-57
2024/04/24 11:56:34;;;;;;;3.93;3.63;;;;;;;;;;5370661;26;20235;-57
2024/04/24 11:59:03;;;;;;;3.87;3.57;;;;;;;;;;5369019;26;20239;-57
2024/04/24 12:01:34;;;;;;;5.00;4.27;;;;;;;;;;5362752;26;20287;-56
2024/04/24 12:04:06;;;;;;;7.10;3.47;;;;;;;;;;5363094;26;20271;-55
2024/04/24 12:06:40;;;;;;;4.88;4.63;;;;;;;;;;5360022;26;20374;-57
2024/04/24 12:09:10;;;;;;;4.60;4.30;;;;;;;;;;5368393;26;20229;-57
2024/04/24 12:11:42;;;;;;;3.97;3.67;;;;;;;;;;5368991;26;20229;-57
2024/04/24 12:14:12;;;;;;;4.93;4.50;;;;;;;;;;5349918;26;20264;-57
2024/04/24 12:16:41;;;;;;;5.33;4.77;;;;;;;;;;5350020;26;20231;-57
2024/04/24 12:19:14;;;;;;;4.37;4.07;;;;;;;;;;5369352;26;20270;-57
2024/04/24 12:21:44;;;;;;;4.07;3.77;;;;;;;;;;5370316;26;20239;-57
2024/04/24 12:24:13;;;;;;;3.57;3.37;;;;;;;;;;5349338;26;20236;-57
2024/04/24 12:26:42;;;;;;;3.83;3.53;;;;;;;;;;5345157;26;20626;-57
2024/04/24 12:29:12;;;;;;;3.90;3.60;;;;;;;;;;5334793;26;20232;-57
2024/04/24 12:31:42;;;;;;;3.57;3.37;;;;;;;;;;5359333;26;20235;-57
2024/04/24 12:34:14;;;;;;;4.33;4.03;;;;;;;;;;5352005;26;20243;-56
2024/04/24 12:36:43;;;;;;;4.00;3.70;;;;;;;;;;5361056;26;20281;-57
2024/04/24 12:39:12;;;;;;;4.43;4.13;;;;;;;;;;5362464;26;20310;-57
2024/04/24 12:41:41;;;;;;;4.20;3.90;;;;;;;;;;5348957;26;20289;-57
2024/04/24 12:44:10;;;;;;;4.70;4.40;;;;;;;;;;5357697;26;20271;-57
2024/04/24 12:46:39;;;;;;;4.60;4.20;;;;;;;;;;5347255;26;20631;-57
2024/04/24 12:49:08;;;;;;;5.07;4.70;;;;;;;;;;5366565;26;20290;-57
2024/04/24 12:51:39;;;;;;;4.40;4.00;;;;;;;;;;5357549;26;20235;-57
2024/04/24 12:54:08;;;;;;;4.53;4.13;;;;;;;;;;5353236;26;20274;-57
2024/04/24 12:56:37;;;;;;;4.17;3.97;;;;;;;;;;5343237;26;20230;-57
2024/04/24 12:59:06;;;;;;;4.57;4.20;;;;;;;;;;5334345;26;20278;-58
2024/04/24 13:01:35;;;;;;;3.83;3.43;;;;;;;;;;5334769;26;20235;-57
2024/04/24 13:04:04;;;;;;;4.60;4.23;;;;;;;;;;5353405;26;20231;-57
2024/04/24 13:06:34;;;;;;;4.43;4.13;;;;;;;;;;5368235;26;20263;-57
2024/04/24 13:09:08;;;;;;;5.50;4.17;;;;;;;;;;5369359;26;20296;-57
2024/04/24 13:11:37;;;;;;;4.40;4.00;;;;;;;;;;5369442;26;20731;-57
2024/04/24 13:14:05;;;;;;;4.97;4.67;;;;;;;;;;5366818;26;20273;-57
2024/04/24 13:16:34;;;;;;;3.63;3.43;;;;;;;;;;5368860;26;20235;-57
2024/04/24 13:19:01;;;;;;;4.60;4.20;;;;;;;;;;5369278;26;20274;-57
2024/04/24 13:21:29;;;;;;;5.60;3.60;;;;;;;;;;5368602;26;20238;-57
2024/04/24 13:23:58;;;;;;;4.70;4.30;;;;;;;;;;5367191;26;20650;-56
2024/04/24 13:26:30;;;;;;;3.97;3.67;;;;;;;;;;5344184;26;20244;-57
2024/04/24 13:28:59;;;;;;;4.03;3.63;;;;;;;;;;5334429;26;20770;-57
2024/04/24 13:31:28;;;;;;;3.53;3.33;;;;;;;;;;5333950;26;20243;-57
2024/04/24 13:33:57;;;;;;;3.70;3.50;;;;;;;;;;5354654;26;20277;-57
2024/04/24 13:36:26;;;;;;;4.40;3.33;;;;;;;;;;5369131;26;20235;-57
2024/04/24 13:38:55;;;;;;;3.80;3.60;;;;;;;;;;5368821;26;20601;-57
2024/04/24 13:41:25;;;;;;;3.77;3.57;;;;;;;;;;5366563;26;20591;-57
2024/04/24 13:43:57;;;;;;;4.03;3.73;;;;;;;;;;5358802;26;20343;-57
2024/04/24 13:46:26;;;;;;;4.00;3.70;;;;;;;;;;5368925;26;20238;-57
2024/04/24 13:48:55;;;;;;;3.90;3.33;;;;;;;;;;5368848;26;20282;-57
2024/04/24 13:51:24;;;;;;;3.30;3.10;;;;;;;;;;5369774;26;20239;-57
2024/04/24 13:53:53;;;;;;;3.97;3.60;;;;;;;;;;5371901;26;20290;-57
2024/04/24 13:56:22;;;;;;;3.90;3.60;;;;;;;;;;5372251;26;20235;-57
2024/04/24 13:58:51;;;;;;;3.37;3.13;;;;;;;;;;5369995;26;20726;-57
2024/04/24 14:01:22;;;;;;;3.43;3.23;;;;;;;;;;5371319;26;20293;-57
2024/04/24 14:03:51;;;;;;;3.97;3.67;;;;;;;;;;5366058;26;20271;-57
2024/04/24 14:06:20;;;;;;;3.57;3.37;;;;;;;;;;5372056;26;20272;-57
2024/04/24 14:08:52;;;;;;;4.17;3.80;;;;;;;;;;5370635;26;20279;-57
2024/04/24 14:11:21;;;;;;;3.90;3.67;;;;;;;;;;5371413;26;20237;-57
2024/04/24 14:13:50;;;;;;;5.10;3.30;;;;;;;;;;5368251;26;20744;-57
2024/04/24 14:16:19;;;;;;;3.53;3.33;;;;;;;;;;5371906;26;20277;-57
2024/04/24 14:18:51;;;;;;;4.00;3.70;;;;;;;;;;5371998;26;20269;-57
2024/04/24 14:21:19;;;;;;;2.77;2.67;;;;;;;;;;5339102;26;20244;-57
2024/04/24 14:23:48;;;;;;;3.00;2.83;;;;;;;;;;5355632;26;20278;-57
2024/04/24 14:26:17;;;;;;;3.90;3.20;;;;;;;;;;5358266;26;20231;-57
2024/04/24 14:28:46;;;;;;;2.77;2.60;;;;;;;;;;5342816;26;20295;-57
2024/04/24 14:31:15;;;;;;;3.10;2.90;;;;;;;;;;5354868;26;20356;-56
2024/04/24 14:33:48;;;;;;;3.10;2.90;;;;;;;;;;5344096;26;20236;-57
2024/04/24 14:36:20;;;;;;;2.73;2.63;;;;;;;;;;5358146;26;20227;-56
2024/04/24 14:38:51;;;;;;;3.07;2.97;;;;;;;;;;5371714;26;20808;-56
2024/04/24 14:41:20;;;;;;;3.40;3.20;;;;;;;;;;5370134;26;20285;-57
2024/04/24 14:43:49;;;;;;;3.43;3.13;;;;;;;;;;5368867;26;20259;-57
2024/04/24 14:46:18;;;;;;;4.10;3.90;;;;;;;;;;5371510;26;20228;-56